Bowerman Airport
KHQM : now visible

Airfield :











YOU CAN JOIN US ON...

 
LOGIN :

Register | Disclaimer

   EN    FR    IT 

 









Legend :    VFR   Marginal VFR   IFR   Intensive IFR   Very Intensive IFR
Visi :
Ceiling :
>= 8 km
>= 3000ft
5 to 8 km
1000 to 3000 ft
1500m to 5 km
500 to 1000 ft
800 to 1500m
200 to 500 ft
< 800m
< 200 ft
Symbols :   Thunderstorms  Fog  Heavy snow  Heavy precipitations  Wind > 20 kt







- Airport Elevation : 18 ft


KHQM - Bowerman

CURRENT METAR :
  • 211703Z AUTO 09003KT 4SM BR FEW004 SCT012 OVC022 15/15 A3014 RMK AO2 T01500150

EXPIRED METARs :
  • 211635Z AUTO 10004KT 1 1/2SM BR FEW004 SCT012 OVC018 14/14 A3014 RMK AO2 T01390139
  • 211628Z AUTO 10003KT 2SM BR FEW004 FEW011 OVC018 14/14 A3014 RMK AO2 T01390139
  • 211618Z AUTO 09003KT 3SM BR FEW007 OVC018 14/14 A3015 RMK AO2 T01390139
  • 211603Z AUTO 08004KT 2 1/2SM BR FEW007 OVC016 14/14 A3015 RMK AO2 T01390139
  • 211553Z AUTO 09003KT 3SM BR FEW008 OVC016 13/13 A3015 RMK AO2 SLP213 T01330133
  • 211524Z AUTO 08004KT 2SM BR SCT009 OVC016 13/13 A3015 RMK AO2 T01330133
  • 211508Z AUTO 09003KT 3SM BR SCT009 OVC014 13/13 A3015 RMK AO2 T01330133
  • 211453Z AUTO 00000KT 5SM BR OVC014 13/13 A3015 RMK AO2 SLP212 T01330133 53001

TAF KHQM
Valid from the 21 at 18:00 until the 22 at 18:00 UTC


211730Z 2118/2218 VRB03KT 4SM BR FEW004 SCT010 OVC020
FM211900 19005KT 6SM BR SCT015 BKN020 OVC030
FM212000 22006KT P6SM BKN025
FM212300 24008KT P6SM OVC035
FM220400 22005KT P6SM OVC020
FM220500 19004KT P6SM OVC007
FM220900 16007KT 4SM -RA BR OVC005
No reported NOTAMs for that airfield.



MET'MAP, your aeronautical weather chart ! - Copyright ORBIFLY December 2007 - Disclaimer

ORBIFLY MET'MAP TEAM :

Programming & Development : Alexandra Zaïnal
Concept & Development : Baudouin d'Aumeries
Co-Development & Prog : Marc-Olivier Méhu
Technical & hardware support : Manuel Goepfert

Contact : metmap@orbifly.com




SOURCES & CREDITS :

   NOAA       Earth
Advisory